sensor_id;sensor_type;location;lat;lon;timestamp;P1;durP1;ratioP1;P2;durP2;ratioP2
31037;SDS011;17702;47.590;7.666;2023-10-19T00:01:53;21.83;;;16.15;;
31037;SDS011;17702;47.590;7.666;2023-10-19T00:04:19;19.02;;;15.75;;
31037;SDS011;17702;47.590;7.666;2023-10-19T00:06:47;19.85;;;14.85;;
31037;SDS011;17702;47.590;7.666;2023-10-19T00:09:14;20.35;;;15.27;;
31037;SDS011;17702;47.590;7.666;2023-10-19T00:11:40;19.00;;;14.63;;
31037;SDS011;17702;47.590;7.666;2023-10-19T00:14:06;19.33;;;14.65;;
31037;SDS011;17702;47.590;7.666;2023-10-19T00:16:41;23.08;;;15.35;;
31037;SDS011;17702;47.590;7.666;2023-10-19T00:19:09;16.85;;;14.07;;
31037;SDS011;17702;47.590;7.666;2023-10-19T00:21:36;19.13;;;13.82;;
31037;SDS011;17702;47.590;7.666;2023-10-19T00:24:15;17.70;;;13.77;;
31037;SDS011;17702;47.590;7.666;2023-10-19T00:26:50;21.02;;;14.20;;
31037;SDS011;17702;47.590;7.666;2023-10-19T00:29:20;16.48;;;13.32;;
31037;SDS011;17702;47.590;7.666;2023-10-19T00:32:04;17.48;;;13.93;;
31037;SDS011;17702;47.590;7.666;2023-10-19T00:34:31;19.15;;;13.63;;
31037;SDS011;17702;47.590;7.666;2023-10-19T00:36:58;19.45;;;14.00;;
31037;SDS011;17702;47.590;7.666;2023-10-19T00:39:32;16.70;;;13.68;;
31037;SDS011;17702;47.590;7.666;2023-10-19T00:42:08;21.05;;;16.02;;
31037;SDS011;17702;47.590;7.666;2023-10-19T00:44:34;19.40;;;14.60;;
31037;SDS011;17702;47.590;7.666;2023-10-19T00:47:07;21.20;;;14.23;;
31037;SDS011;17702;47.590;7.666;2023-10-19T00:49:38;23.42;;;18.45;;
31037;SDS011;17702;47.590;7.666;2023-10-19T00:52:04;18.40;;;14.50;;
31037;SDS011;17702;47.590;7.666;2023-10-19T00:54:44;22.95;;;16.58;;
31037;SDS011;17702;47.590;7.666;2023-10-19T00:57:14;18.33;;;14.20;;
31037;SDS011;17702;47.590;7.666;2023-10-19T00:59:45;18.08;;;13.45;;
31037;SDS011;17702;47.590;7.666;2023-10-19T01:02:17;21.83;;;15.80;;
31037;SDS011;17702;47.590;7.666;2023-10-19T01:04:53;18.15;;;13.93;;
31037;SDS011;17702;47.590;7.666;2023-10-19T01:07:27;18.77;;;14.05;;
31037;SDS011;17702;47.590;7.666;2023-10-19T01:09:58;17.20;;;14.07;;
31037;SDS011;17702;47.590;7.666;2023-10-19T01:12:25;18.30;;;14.27;;
31037;SDS011;17702;47.590;7.666;2023-10-19T01:17:42;19.83;;;15.07;;
31037;SDS011;17702;47.590;7.666;2023-10-19T01:22:54;16.73;;;14.45;;
31037;SDS011;17702;47.590;7.666;2023-10-19T01:25:30;20.13;;;14.48;;
31037;SDS011;17702;47.590;7.666;2023-10-19T01:28:01;22.05;;;15.38;;
31037;SDS011;17702;47.590;7.666;2023-10-19T01:30:34;19.80;;;15.32;;
31037;SDS011;17702;47.590;7.666;2023-10-19T01:33:01;20.35;;;15.52;;
31037;SDS011;17702;47.590;7.666;2023-10-19T01:35:37;21.40;;;14.68;;
31037;SDS011;17702;47.590;7.666;2023-10-19T01:38:22;21.45;;;15.15;;
31037;SDS011;17702;47.590;7.666;2023-10-19T01:40:48;20.13;;;15.55;;
31037;SDS011;17702;47.590;7.666;2023-10-19T01:43:13;19.70;;;15.05;;
31037;SDS011;17702;47.590;7.666;2023-10-19T01:45:46;22.42;;;15.90;;
31037;SDS011;17702;47.590;7.666;2023-10-19T01:48:13;19.83;;;15.90;;
31037;SDS011;17702;47.590;7.666;2023-10-19T01:50:40;25.45;;;15.68;;
31037;SDS011;17702;47.590;7.666;2023-10-19T01:53:06;20.55;;;14.55;;
31037;SDS011;17702;47.590;7.666;2023-10-19T01:55:41;21.58;;;15.50;;
31037;SDS011;17702;47.590;7.666;2023-10-19T01:58:08;22.90;;;15.35;;
31037;SDS011;17702;47.590;7.666;2023-10-19T02:00:34;19.27;;;15.88;;
31037;SDS011;17702;47.590;7.666;2023-10-19T02:03:05;18.70;;;14.57;;
31037;SDS011;17702;47.590;7.666;2023-10-19T02:05:32;20.27;;;15.70;;
31037;SDS011;17702;47.590;7.666;2023-10-19T02:08:04;22.88;;;14.73;;
31037;SDS011;17702;47.590;7.666;2023-10-19T02:10:34;18.05;;;13.95;;
31037;SDS011;17702;47.590;7.666;2023-10-19T02:13:00;23.38;;;15.40;;
31037;SDS011;17702;47.590;7.666;2023-10-19T02:15:31;21.13;;;15.65;;
31037;SDS011;17702;47.590;7.666;2023-10-19T02:18:01;19.77;;;14.88;;
31037;SDS011;17702;47.590;7.666;2023-10-19T02:20:28;21.17;;;15.65;;
31037;SDS011;17702;47.590;7.666;2023-10-19T02:22:54;21.13;;;15.73;;
31037;SDS011;17702;47.590;7.666;2023-10-19T02:25:22;19.98;;;14.55;;
31037;SDS011;17702;47.590;7.666;2023-10-19T02:27:50;18.38;;;15.20;;
31037;SDS011;17702;47.590;7.666;2023-10-19T02:30:17;20.88;;;15.35;;
31037;SDS011;17702;47.590;7.666;2023-10-19T02:32:42;21.23;;;16.35;;
31037;SDS011;17702;47.590;7.666;2023-10-19T02:35:08;23.33;;;15.60;;
31037;SDS011;17702;47.590;7.666;2023-10-19T02:37:34;22.20;;;16.08;;
31037;SDS011;17702;47.590;7.666;2023-10-19T02:40:00;21.00;;;16.63;;
31037;SDS011;17702;47.590;7.666;2023-10-19T02:42:25;23.75;;;15.98;;
31037;SDS011;17702;47.590;7.666;2023-10-19T02:44:51;19.15;;;15.13;;
31037;SDS011;17702;47.590;7.666;2023-10-19T02:47:17;26.80;;;17.40;;
31037;SDS011;17702;47.590;7.666;2023-10-19T02:49:42;21.50;;;16.10;;
31037;SDS011;17702;47.590;7.666;2023-10-19T02:52:15;22.48;;;16.05;;
31037;SDS011;17702;47.590;7.666;2023-10-19T02:54:41;23.08;;;16.38;;
31037;SDS011;17702;47.590;7.666;2023-10-19T02:57:07;22.10;;;17.17;;
31037;SDS011;17702;47.590;7.666;2023-10-19T02:59:34;20.60;;;15.93;;
31037;SDS011;17702;47.590;7.666;2023-10-19T03:02:00;25.05;;;16.50;;
31037;SDS011;17702;47.590;7.666;2023-10-19T03:04:39;24.58;;;17.05;;
31037;SDS011;17702;47.590;7.666;2023-10-19T03:07:06;22.15;;;16.77;;
31037;SDS011;17702;47.590;7.666;2023-10-19T03:09:32;22.67;;;16.90;;
31037;SDS011;17702;47.590;7.666;2023-10-19T03:12:01;22.60;;;17.48;;
31037;SDS011;17702;47.590;7.666;2023-10-19T03:14:34;25.55;;;16.58;;
31037;SDS011;17702;47.590;7.666;2023-10-19T03:17:00;23.00;;;16.52;;
31037;SDS011;17702;47.590;7.666;2023-10-19T03:19:26;23.70;;;16.67;;
31037;SDS011;17702;47.590;7.666;2023-10-19T03:21:52;23.15;;;16.67;;
31037;SDS011;17702;47.590;7.666;2023-10-19T03:24:20;24.20;;;16.48;;
31037;SDS011;17702;47.590;7.666;2023-10-19T03:26:51;23.02;;;17.15;;
31037;SDS011;17702;47.590;7.666;2023-10-19T03:29:19;27.08;;;18.13;;
31037;SDS011;17702;47.590;7.666;2023-10-19T03:31:48;25.05;;;17.75;;
31037;SDS011;17702;47.590;7.666;2023-10-19T03:34:14;23.27;;;17.95;;
31037;SDS011;17702;47.590;7.666;2023-10-19T03:36:42;24.48;;;17.58;;
31037;SDS011;17702;47.590;7.666;2023-10-19T03:39:09;21.77;;;16.77;;
31037;SDS011;17702;47.590;7.666;2023-10-19T03:41:39;26.00;;;18.00;;
31037;SDS011;17702;47.590;7.666;2023-10-19T03:44:09;24.42;;;17.27;;
31037;SDS011;17702;47.590;7.666;2023-10-19T03:46:58;24.00;;;18.05;;
31037;SDS011;17702;47.590;7.666;2023-10-19T03:49:29;25.02;;;17.98;;
31037;SDS011;17702;47.590;7.666;2023-10-19T03:52:04;28.17;;;18.35;;
31037;SDS011;17702;47.590;7.666;2023-10-19T03:54:33;26.23;;;18.33;;
31037;SDS011;17702;47.590;7.666;2023-10-19T03:57:03;24.10;;;19.23;;
31037;SDS011;17702;47.590;7.666;2023-10-19T03:59:37;23.73;;;17.25;;
31037;SDS011;17702;47.590;7.666;2023-10-19T04:02:06;27.67;;;19.50;;
31037;SDS011;17702;47.590;7.666;2023-10-19T04:04:35;24.58;;;18.38;;
31037;SDS011;17702;47.590;7.666;2023-10-19T04:07:01;30.20;;;18.98;;
31037;SDS011;17702;47.590;7.666;2023-10-19T04:09:35;25.15;;;18.13;;
31037;SDS011;17702;47.590;7.666;2023-10-19T04:12:14;24.15;;;18.15;;
31037;SDS011;17702;47.590;7.666;2023-10-19T04:14:42;28.50;;;19.70;;
31037;SDS011;17702;47.590;7.666;2023-10-19T04:17:07;30.42;;;19.63;;
31037;SDS011;17702;47.590;7.666;2023-10-19T04:19:37;28.75;;;20.15;;
31037;SDS011;17702;47.590;7.666;2023-10-19T04:22:03;23.60;;;18.58;;
31037;SDS011;17702;47.590;7.666;2023-10-19T04:24:29;28.13;;;19.30;;
31037;SDS011;17702;47.590;7.666;2023-10-19T04:26:58;27.38;;;19.02;;
31037;SDS011;17702;47.590;7.666;2023-10-19T04:29:24;25.77;;;18.02;;
31037;SDS011;17702;47.590;7.666;2023-10-19T04:31:52;27.40;;;17.67;;
31037;SDS011;17702;47.590;7.666;2023-10-19T04:34:22;26.67;;;18.40;;
31037;SDS011;17702;47.590;7.666;2023-10-19T04:36:49;26.42;;;18.23;;
31037;SDS011;17702;47.590;7.666;2023-10-19T04:39:16;26.65;;;19.15;;
31037;SDS011;17702;47.590;7.666;2023-10-19T04:41:44;25.10;;;19.10;;
31037;SDS011;17702;47.590;7.666;2023-10-19T04:44:13;27.00;;;19.58;;
31037;SDS011;17702;47.590;7.666;2023-10-19T04:46:40;30.10;;;19.80;;
31037;SDS011;17702;47.590;7.666;2023-10-19T04:49:06;25.25;;;18.25;;
31037;SDS011;17702;47.590;7.666;2023-10-19T04:51:32;26.75;;;18.58;;
31037;SDS011;17702;47.590;7.666;2023-10-19T04:53:59;29.77;;;18.63;;
31037;SDS011;17702;47.590;7.666;2023-10-19T04:56:25;23.23;;;16.65;;
31037;SDS011;17702;47.590;7.666;2023-10-19T04:58:50;23.02;;;18.40;;
31037;SDS011;17702;47.590;7.666;2023-10-19T05:01:16;32.92;;;18.35;;
31037;SDS011;17702;47.590;7.666;2023-10-19T05:03:42;24.45;;;17.60;;
31037;SDS011;17702;47.590;7.666;2023-10-19T05:06:07;25.02;;;17.63;;
31037;SDS011;17702;47.590;7.666;2023-10-19T05:08:34;27.27;;;18.33;;
31037;SDS011;17702;47.590;7.666;2023-10-19T05:11:01;23.52;;;17.50;;
31037;SDS011;17702;47.590;7.666;2023-10-19T05:13:30;24.63;;;18.20;;
31037;SDS011;17702;47.590;7.666;2023-10-19T05:15:57;24.30;;;17.70;;
31037;SDS011;17702;47.590;7.666;2023-10-19T05:18:24;24.65;;;17.42;;
31037;SDS011;17702;47.590;7.666;2023-10-19T05:20:51;23.98;;;17.65;;
31037;SDS011;17702;47.590;7.666;2023-10-19T05:23:20;23.35;;;17.63;;
31037;SDS011;17702;47.590;7.666;2023-10-19T05:25:50;24.13;;;17.45;;
31037;SDS011;17702;47.590;7.666;2023-10-19T05:28:24;24.38;;;17.65;;
31037;SDS011;17702;47.590;7.666;2023-10-19T05:30:50;23.13;;;17.25;;
31037;SDS011;17702;47.590;7.666;2023-10-19T05:33:16;24.25;;;17.58;;
31037;SDS011;17702;47.590;7.666;2023-10-19T05:35:48;27.70;;;17.25;;
31037;SDS011;17702;47.590;7.666;2023-10-19T05:38:14;24.08;;;17.75;;
31037;SDS011;17702;47.590;7.666;2023-10-19T05:40:41;22.55;;;17.52;;
31037;SDS011;17702;47.590;7.666;2023-10-19T05:43:08;29.27;;;18.02;;
31037;SDS011;17702;47.590;7.666;2023-10-19T05:45:34;25.42;;;17.48;;
31037;SDS011;17702;47.590;7.666;2023-10-19T05:48:01;31.88;;;17.92;;
31037;SDS011;17702;47.590;7.666;2023-10-19T05:50:28;27.13;;;18.05;;
31037;SDS011;17702;47.590;7.666;2023-10-19T05:52:54;26.42;;;17.70;;
31037;SDS011;17702;47.590;7.666;2023-10-19T05:55:20;26.27;;;17.85;;
31037;SDS011;17702;47.590;7.666;2023-10-19T05:57:49;25.52;;;18.23;;
31037;SDS011;17702;47.590;7.666;2023-10-19T06:00:15;24.67;;;17.45;;
31037;SDS011;17702;47.590;7.666;2023-10-19T06:02:45;23.77;;;17.98;;
31037;SDS011;17702;47.590;7.666;2023-10-19T06:05:12;28.70;;;18.75;;
31037;SDS011;17702;47.590;7.666;2023-10-19T06:07:45;24.95;;;16.90;;
31037;SDS011;17702;47.590;7.666;2023-10-19T06:10:18;47.78;;;34.40;;
31037;SDS011;17702;47.590;7.666;2023-10-19T06:12:49;23.80;;;17.58;;
31037;SDS011;17702;47.590;7.666;2023-10-19T06:15:16;31.02;;;25.55;;
31037;SDS011;17702;47.590;7.666;2023-10-19T06:17:46;27.65;;;16.98;;
31037;SDS011;17702;47.590;7.666;2023-10-19T06:20:13;22.17;;;17.60;;
31037;SDS011;17702;47.590;7.666;2023-10-19T06:25:22;26.05;;;17.23;;
31037;SDS011;17702;47.590;7.666;2023-10-19T06:27:50;22.90;;;16.77;;
31037;SDS011;17702;47.590;7.666;2023-10-19T06:30:16;19.48;;;14.70;;
31037;SDS011;17702;47.590;7.666;2023-10-19T06:32:47;28.48;;;18.15;;
31037;SDS011;17702;47.590;7.666;2023-10-19T06:35:15;24.13;;;18.30;;
31037;SDS011;17702;47.590;7.666;2023-10-19T06:37:42;26.80;;;18.13;;
31037;SDS011;17702;47.590;7.666;2023-10-19T06:40:08;26.35;;;18.42;;
31037;SDS011;17702;47.590;7.666;2023-10-19T06:42:36;29.80;;;19.95;;
31037;SDS011;17702;47.590;7.666;2023-10-19T06:45:02;25.67;;;18.83;;
31037;SDS011;17702;47.590;7.666;2023-10-19T06:47:28;25.70;;;18.90;;
31037;SDS011;17702;47.590;7.666;2023-10-19T06:49:54;25.42;;;18.05;;
31037;SDS011;17702;47.590;7.666;2023-10-19T06:52:20;26.60;;;19.80;;
31037;SDS011;17702;47.590;7.666;2023-10-19T06:54:46;27.20;;;18.83;;
31037;SDS011;17702;47.590;7.666;2023-10-19T06:57:12;23.08;;;17.83;;
31037;SDS011;17702;47.590;7.666;2023-10-19T06:59:38;25.65;;;18.88;;
31037;SDS011;17702;47.590;7.666;2023-10-19T07:02:04;24.33;;;17.73;;
31037;SDS011;17702;47.590;7.666;2023-10-19T07:04:32;25.92;;;17.75;;
31037;SDS011;17702;47.590;7.666;2023-10-19T07:06:58;21.08;;;16.17;;
31037;SDS011;17702;47.590;7.666;2023-10-19T07:09:25;21.52;;;16.40;;
31037;SDS011;17702;47.590;7.666;2023-10-19T07:11:51;22.75;;;16.33;;
31037;SDS011;17702;47.590;7.666;2023-10-19T07:14:19;22.10;;;16.88;;
31037;SDS011;17702;47.590;7.666;2023-10-19T07:16:47;23.50;;;16.48;;
31037;SDS011;17702;47.590;7.666;2023-10-19T07:19:14;22.45;;;17.13;;
31037;SDS011;17702;47.590;7.666;2023-10-19T07:21:39;21.33;;;15.48;;
31037;SDS011;17702;47.590;7.666;2023-10-19T07:24:08;25.98;;;16.40;;
31037;SDS011;17702;47.590;7.666;2023-10-19T07:26:36;22.27;;;15.88;;
31037;SDS011;17702;47.590;7.666;2023-10-19T07:29:08;25.83;;;16.83;;
31037;SDS011;17702;47.590;7.666;2023-10-19T07:31:35;23.40;;;17.98;;
31037;SDS011;17702;47.590;7.666;2023-10-19T07:34:01;21.63;;;16.92;;
31037;SDS011;17702;47.590;7.666;2023-10-19T07:36:28;23.50;;;15.45;;
31037;SDS011;17702;47.590;7.666;2023-10-19T07:38:54;21.38;;;15.57;;
31037;SDS011;17702;47.590;7.666;2023-10-19T07:41:20;19.95;;;14.82;;
31037;SDS011;17702;47.590;7.666;2023-10-19T07:43:46;22.98;;;15.40;;
31037;SDS011;17702;47.590;7.666;2023-10-19T07:46:12;21.95;;;14.60;;
31037;SDS011;17702;47.590;7.666;2023-10-19T07:48:37;17.98;;;14.63;;
31037;SDS011;17702;47.590;7.666;2023-10-19T07:51:03;21.60;;;14.27;;
31037;SDS011;17702;47.590;7.666;2023-10-19T07:53:29;17.98;;;13.60;;
31037;SDS011;17702;47.590;7.666;2023-10-19T07:55:55;21.35;;;14.05;;
31037;SDS011;17702;47.590;7.666;2023-10-19T07:58:22;19.58;;;14.60;;
31037;SDS011;17702;47.590;7.666;2023-10-19T08:00:48;18.17;;;14.00;;
31037;SDS011;17702;47.590;7.666;2023-10-19T08:03:14;20.13;;;13.68;;
31037;SDS011;17702;47.590;7.666;2023-10-19T08:05:41;19.08;;;14.80;;
31037;SDS011;17702;47.590;7.666;2023-10-19T08:08:07;22.42;;;14.70;;
31037;SDS011;17702;47.590;7.666;2023-10-19T08:10:33;19.25;;;14.90;;
31037;SDS011;17702;47.590;7.666;2023-10-19T08:12:59;18.35;;;14.55;;
31037;SDS011;17702;47.590;7.666;2023-10-19T08:15:26;19.63;;;14.95;;
31037;SDS011;17702;47.590;7.666;2023-10-19T08:17:53;18.73;;;14.32;;
31037;SDS011;17702;47.590;7.666;2023-10-19T08:20:19;20.13;;;14.40;;
31037;SDS011;17702;47.590;7.666;2023-10-19T08:22:50;18.52;;;13.82;;
31037;SDS011;17702;47.590;7.666;2023-10-19T08:25:17;19.33;;;14.85;;
31037;SDS011;17702;47.590;7.666;2023-10-19T08:27:46;16.17;;;13.57;;
31037;SDS011;17702;47.590;7.666;2023-10-19T08:30:19;29.00;;;19.15;;
31037;SDS011;17702;47.590;7.666;2023-10-19T08:32:46;29.23;;;22.38;;
31037;SDS011;17702;47.590;7.666;2023-10-19T08:35:15;21.95;;;15.45;;
31037;SDS011;17702;47.590;7.666;2023-10-19T08:37:45;17.52;;;13.98;;
31037;SDS011;17702;47.590;7.666;2023-10-19T08:40:11;18.67;;;13.95;;
31037;SDS011;17702;47.590;7.666;2023-10-19T08:42:41;19.17;;;15.30;;
31037;SDS011;17702;47.590;7.666;2023-10-19T08:45:08;18.27;;;13.57;;
31037;SDS011;17702;47.590;7.666;2023-10-19T08:47:35;18.88;;;14.13;;
31037;SDS011;17702;47.590;7.666;2023-10-19T08:50:04;14.82;;;11.05;;
31037;SDS011;17702;47.590;7.666;2023-10-19T08:52:30;19.50;;;14.68;;
31037;SDS011;17702;47.590;7.666;2023-10-19T08:54:57;19.40;;;13.98;;
31037;SDS011;17702;47.590;7.666;2023-10-19T08:57:23;17.30;;;13.52;;
31037;SDS011;17702;47.590;7.666;2023-10-19T08:59:48;15.60;;;13.75;;
31037;SDS011;17702;47.590;7.666;2023-10-19T09:02:14;15.63;;;13.45;;
31037;SDS011;17702;47.590;7.666;2023-10-19T09:04:47;15.48;;;12.73;;
31037;SDS011;17702;47.590;7.666;2023-10-19T09:07:13;17.33;;;13.82;;
31037;SDS011;17702;47.590;7.666;2023-10-19T09:09:39;16.10;;;13.13;;
31037;SDS011;17702;47.590;7.666;2023-10-19T09:12:08;15.27;;;12.95;;
31037;SDS011;17702;47.590;7.666;2023-10-19T09:14:35;17.42;;;14.15;;
31037;SDS011;17702;47.590;7.666;2023-10-19T09:17:04;18.67;;;13.68;;
31037;SDS011;17702;47.590;7.666;2023-10-19T09:19:40;20.35;;;14.10;;
31037;SDS011;17702;47.590;7.666;2023-10-19T09:22:13;18.95;;;14.02;;
31037;SDS011;17702;47.590;7.666;2023-10-19T09:24:51;18.63;;;15.13;;
31037;SDS011;17702;47.590;7.666;2023-10-19T09:27:21;20.55;;;15.25;;
31037;SDS011;17702;47.590;7.666;2023-10-19T09:29:48;18.45;;;14.48;;
31037;SDS011;17702;47.590;7.666;2023-10-19T09:32:16;17.02;;;13.25;;
31037;SDS011;17702;47.590;7.666;2023-10-19T09:34:42;18.52;;;12.02;;
31037;SDS011;17702;47.590;7.666;2023-10-19T09:37:10;16.50;;;13.15;;
31037;SDS011;17702;47.590;7.666;2023-10-19T09:39:36;19.27;;;13.65;;
31037;SDS011;17702;47.590;7.666;2023-10-19T09:42:05;19.67;;;13.73;;
31037;SDS011;17702;47.590;7.666;2023-10-19T09:44:42;15.40;;;11.75;;
31037;SDS011;17702;47.590;7.666;2023-10-19T09:47:12;14.82;;;11.68;;
31037;SDS011;17702;47.590;7.666;2023-10-19T09:49:40;16.98;;;11.13;;
31037;SDS011;17702;47.590;7.666;2023-10-19T09:52:07;13.43;;;11.98;;
31037;SDS011;17702;47.590;7.666;2023-10-19T09:54:37;14.85;;;12.68;;
31037;SDS011;17702;47.590;7.666;2023-10-19T09:57:13;16.83;;;11.52;;
31037;SDS011;17702;47.590;7.666;2023-10-19T09:59:44;15.95;;;13.18;;
31037;SDS011;17702;47.590;7.666;2023-10-19T10:02:13;20.60;;;14.95;;
31037;SDS011;17702;47.590;7.666;2023-10-19T10:04:43;20.85;;;17.08;;
31037;SDS011;17702;47.590;7.666;2023-10-19T10:07:12;17.27;;;14.00;;
31037;SDS011;17702;47.590;7.666;2023-10-19T10:09:41;19.27;;;12.27;;
31037;SDS011;17702;47.590;7.666;2023-10-19T10:14:54;20.08;;;14.00;;
31037;SDS011;17702;47.590;7.666;2023-10-19T10:17:36;15.60;;;13.93;;
31037;SDS011;17702;47.590;7.666;2023-10-19T10:22:44;17.77;;;14.10;;
31037;SDS011;17702;47.590;7.666;2023-10-19T10:25:28;12.35;;;10.43;;
31037;SDS011;17702;47.590;7.666;2023-10-19T10:27:55;12.93;;;10.60;;
31037;SDS011;17702;47.590;7.666;2023-10-19T10:30:21;11.02;;;7.80;;
31037;SDS011;17702;47.590;7.666;2023-10-19T10:32:47;17.70;;;12.05;;
31037;SDS011;17702;47.590;7.666;2023-10-19T10:38:06;19.38;;;14.40;;
31037;SDS011;17702;47.590;7.666;2023-10-19T10:40:45;17.45;;;14.73;;
31037;SDS011;17702;47.590;7.666;2023-10-19T10:43:15;19.38;;;15.63;;
31037;SDS011;17702;47.590;7.666;2023-10-19T10:45:41;20.33;;;15.40;;
31037;SDS011;17702;47.590;7.666;2023-10-19T10:48:14;18.67;;;15.35;;
31037;SDS011;17702;47.590;7.666;2023-10-19T10:50:41;18.58;;;14.63;;
31037;SDS011;17702;47.590;7.666;2023-10-19T10:53:15;20.05;;;13.43;;
31037;SDS011;17702;47.590;7.666;2023-10-19T10:55:41;14.55;;;12.43;;
31037;SDS011;17702;47.590;7.666;2023-10-19T10:58:07;16.92;;;13.45;;
31037;SDS011;17702;47.590;7.666;2023-10-19T11:00:33;13.45;;;11.38;;
31037;SDS011;17702;47.590;7.666;2023-10-19T11:03:06;19.77;;;14.20;;
31037;SDS011;17702;47.590;7.666;2023-10-19T11:05:33;14.55;;;11.80;;
31037;SDS011;17702;47.590;7.666;2023-10-19T11:08:07;14.43;;;12.57;;
31037;SDS011;17702;47.590;7.666;2023-10-19T11:10:40;17.45;;;13.23;;
31037;SDS011;17702;47.590;7.666;2023-10-19T11:13:11;15.50;;;11.43;;
31037;SDS011;17702;47.590;7.666;2023-10-19T11:15:50;20.23;;;14.23;;
31037;SDS011;17702;47.590;7.666;2023-10-19T11:21:08;18.55;;;13.98;;
31037;SDS011;17702;47.590;7.666;2023-10-19T11:23:49;18.15;;;12.82;;
31037;SDS011;17702;47.590;7.666;2023-10-19T11:26:21;17.90;;;14.10;;
31037;SDS011;17702;47.590;7.666;2023-10-19T11:28:58;21.33;;;13.25;;
31037;SDS011;17702;47.590;7.666;2023-10-19T11:31:25;14.43;;;12.18;;
31037;SDS011;17702;47.590;7.666;2023-10-19T11:33:53;15.85;;;12.55;;
31037;SDS011;17702;47.590;7.666;2023-10-19T11:36:23;15.38;;;12.50;;
31037;SDS011;17702;47.590;7.666;2023-10-19T11:38:50;18.83;;;13.18;;
31037;SDS011;17702;47.590;7.666;2023-10-19T11:41:18;13.38;;;11.00;;
31037;SDS011;17702;47.590;7.666;2023-10-19T11:43:45;15.63;;;12.40;;
31037;SDS011;17702;47.590;7.666;2023-10-19T11:46:11;13.80;;;11.55;;
31037;SDS011;17702;47.590;7.666;2023-10-19T11:48:39;16.15;;;12.20;;
31037;SDS011;17702;47.590;7.666;2023-10-19T11:51:05;12.35;;;10.30;;
31037;SDS011;17702;47.590;7.666;2023-10-19T11:53:32;13.02;;;11.40;;
31037;SDS011;17702;47.590;7.666;2023-10-19T11:56:02;12.23;;;10.60;;
31037;SDS011;17702;47.590;7.666;2023-10-19T11:58:30;12.23;;;10.93;;
31037;SDS011;17702;47.590;7.666;2023-10-19T12:00:58;14.10;;;11.45;;
31037;SDS011;17702;47.590;7.666;2023-10-19T12:03:24;12.00;;;10.80;;
31037;SDS011;17702;47.590;7.666;2023-10-19T12:05:50;15.02;;;11.68;;
31037;SDS011;17702;47.590;7.666;2023-10-19T12:08:18;16.48;;;13.30;;
31037;SDS011;17702;47.590;7.666;2023-10-19T12:10:43;19.17;;;13.73;;
31037;SDS011;17702;47.590;7.666;2023-10-19T12:13:09;20.45;;;13.38;;
31037;SDS011;17702;47.590;7.666;2023-10-19T12:15:35;16.98;;;12.88;;
31037;SDS011;17702;47.590;7.666;2023-10-19T12:18:01;15.95;;;13.10;;
31037;SDS011;17702;47.590;7.666;2023-10-19T12:20:27;19.70;;;13.98;;
31037;SDS011;17702;47.590;7.666;2023-10-19T12:22:56;17.98;;;11.90;;
31037;SDS011;17702;47.590;7.666;2023-10-19T12:25:22;16.00;;;11.35;;
31037;SDS011;17702;47.590;7.666;2023-10-19T12:27:57;14.93;;;11.98;;
31037;SDS011;17702;47.590;7.666;2023-10-19T12:30:24;12.70;;;10.65;;
31037;SDS011;17702;47.590;7.666;2023-10-19T12:32:59;15.85;;;11.85;;
31037;SDS011;17702;47.590;7.666;2023-10-19T12:35:25;14.85;;;12.00;;
31037;SDS011;17702;47.590;7.666;2023-10-19T12:38:07;12.35;;;10.77;;
31037;SDS011;17702;47.590;7.666;2023-10-19T12:40:40;14.55;;;10.73;;
31037;SDS011;17702;47.590;7.666;2023-10-19T12:43:07;12.13;;;10.55;;
31037;SDS011;17702;47.590;7.666;2023-10-19T12:45:35;15.13;;;11.07;;
31037;SDS011;17702;47.590;7.666;2023-10-19T12:48:02;13.98;;;11.63;;
31037;SDS011;17702;47.590;7.666;2023-10-19T12:50:29;12.77;;;10.55;;
31037;SDS011;17702;47.590;7.666;2023-10-19T12:52:55;13.82;;;11.15;;
31037;SDS011;17702;47.590;7.666;2023-10-19T12:55:21;13.25;;;10.10;;
31037;SDS011;17702;47.590;7.666;2023-10-19T12:57:50;15.57;;;10.88;;
31037;SDS011;17702;47.590;7.666;2023-10-19T13:00:16;13.73;;;10.75;;
31037;SDS011;17702;47.590;7.666;2023-10-19T13:03:11;14.70;;;10.57;;
31037;SDS011;17702;47.590;7.666;2023-10-19T13:05:41;16.92;;;11.93;;
31037;SDS011;17702;47.590;7.666;2023-10-19T13:08:10;16.17;;;11.88;;
31037;SDS011;17702;47.590;7.666;2023-10-19T13:10:38;14.90;;;11.20;;
31037;SDS011;17702;47.590;7.666;2023-10-19T13:13:07;13.68;;;11.40;;
31037;SDS011;17702;47.590;7.666;2023-10-19T13:15:37;16.80;;;12.18;;
31037;SDS011;17702;47.590;7.666;2023-10-19T13:18:04;15.45;;;11.27;;
31037;SDS011;17702;47.590;7.666;2023-10-19T13:20:31;14.07;;;11.60;;
31037;SDS011;17702;47.590;7.666;2023-10-19T13:23:05;17.83;;;11.60;;
31037;SDS011;17702;47.590;7.666;2023-10-19T13:25:36;15.52;;;11.32;;
31037;SDS011;17702;47.590;7.666;2023-10-19T13:28:19;14.68;;;11.55;;
31037;SDS011;17702;47.590;7.666;2023-10-19T13:33:15;17.98;;;12.18;;
31037;SDS011;17702;47.590;7.666;2023-10-19T13:35:42;18.50;;;12.90;;
31037;SDS011;17702;47.590;7.666;2023-10-19T13:38:09;20.25;;;13.50;;
31037;SDS011;17702;47.590;7.666;2023-10-19T13:40:36;18.52;;;13.30;;
31037;SDS011;17702;47.590;7.666;2023-10-19T13:43:03;24.73;;;18.27;;
31037;SDS011;17702;47.590;7.666;2023-10-19T13:45:31;20.35;;;15.88;;
31037;SDS011;17702;47.590;7.666;2023-10-19T13:48:01;51.63;;;45.53;;
31037;SDS011;17702;47.590;7.666;2023-10-19T13:50:27;19.05;;;14.73;;
31037;SDS011;17702;47.590;7.666;2023-10-19T13:52:54;18.83;;;14.05;;
31037;SDS011;17702;47.590;7.666;2023-10-19T13:55:21;16.83;;;13.52;;
31037;SDS011;17702;47.590;7.666;2023-10-19T13:57:48;18.80;;;13.70;;
31037;SDS011;17702;47.590;7.666;2023-10-19T14:00:15;25.15;;;20.02;;
31037;SDS011;17702;47.590;7.666;2023-10-19T14:02:55;20.67;;;13.32;;
31037;SDS011;17702;47.590;7.666;2023-10-19T14:05:22;16.40;;;13.00;;
31037;SDS011;17702;47.590;7.666;2023-10-19T14:07:49;17.33;;;13.75;;
31037;SDS011;17702;47.590;7.666;2023-10-19T14:10:15;16.98;;;12.15;;
31037;SDS011;17702;47.590;7.666;2023-10-19T14:12:43;15.80;;;12.82;;
31037;SDS011;17702;47.590;7.666;2023-10-19T14:15:12;16.17;;;12.75;;
31037;SDS011;17702;47.590;7.666;2023-10-19T14:17:39;17.20;;;13.02;;
31037;SDS011;17702;47.590;7.666;2023-10-19T14:20:05;16.27;;;13.02;;
31037;SDS011;17702;47.590;7.666;2023-10-19T14:22:31;18.10;;;12.77;;
31037;SDS011;17702;47.590;7.666;2023-10-19T14:25:00;19.08;;;12.73;;
31037;SDS011;17702;47.590;7.666;2023-10-19T14:27:26;15.05;;;13.18;;
31037;SDS011;17702;47.590;7.666;2023-10-19T14:29:51;20.98;;;15.48;;
31037;SDS011;17702;47.590;7.666;2023-10-19T14:32:17;21.75;;;16.35;;
31037;SDS011;17702;47.590;7.666;2023-10-19T14:34:42;24.27;;;16.42;;
31037;SDS011;17702;47.590;7.666;2023-10-19T14:37:08;23.27;;;17.83;;
31037;SDS011;17702;47.590;7.666;2023-10-19T14:39:34;21.83;;;17.05;;
31037;SDS011;17702;47.590;7.666;2023-10-19T14:42:00;24.50;;;17.13;;
31037;SDS011;17702;47.590;7.666;2023-10-19T14:44:25;26.38;;;18.17;;
31037;SDS011;17702;47.590;7.666;2023-10-19T14:46:52;27.65;;;19.00;;
31037;SDS011;17702;47.590;7.666;2023-10-19T14:49:18;28.33;;;18.83;;
31037;SDS011;17702;47.590;7.666;2023-10-19T14:51:44;25.23;;;19.25;;